Time;durP1;ratioP1;P1;durP2;ratioP2;P2;SDS_P1;SDS_P2;PMS_P1;PMS_P2;Temp;Humidity;BMP_temperature;BMP_pressure;BME280_temperature;BME280_humidity;BME280_pressure;Samples;Min_cycle;Max_cycle;Signal;HPM_P1;HPM_P2
2022/05/18 00:01:36;;;;;;;9.70;5.82;;;16.40;99.90;;;;;;4898735;29;20270;-82
2022/05/18 00:04:04;;;;;;;9.77;6.28;;;16.30;99.90;;;;;;4900546;29;20036;-82
2022/05/18 00:06:30;;;;;;;9.65;6.43;;;16.30;99.90;;;;;;4900644;29;20039;-82
2022/05/18 00:08:55;;;;;;;9.65;6.38;;;16.20;99.90;;;;;;4902017;29;20035;-83
2022/05/18 00:11:24;;;;;;;9.10;5.90;;;16.10;99.90;;;;;;4901404;29;20094;-82
2022/05/18 00:13:53;;;;;;;8.45;6.25;;;16.10;99.90;;;;;;4883151;29;20953;-82
2022/05/18 00:16:20;;;;;;;7.00;5.78;;;16.10;99.90;;;;;;4902858;29;20128;-82
2022/05/18 00:18:46;;;;;;;9.52;6.15;;;16.10;99.90;;;;;;4901982;29;20044;-82
2022/05/18 00:21:13;;;;;;;9.68;6.15;;;16.00;99.90;;;;;;4901374;29;20481;-82
2022/05/18 00:23:39;;;;;;;9.80;7.10;;;16.00;99.90;;;;;;4902335;29;20048;-82
2022/05/18 00:26:08;;;;;;;12.10;6.20;;;16.00;99.90;;;;;;4884985;29;20023;-83
2022/05/18 00:28:34;;;;;;;10.60;6.45;;;16.00;99.90;;;;;;4901442;29;20063;-82
2022/05/18 00:31:00;;;;;;;11.88;6.50;;;15.90;99.90;;;;;;4933024;28;20042;-82
2022/05/18 00:33:27;;;;;;;13.43;6.57;;;15.80;99.90;;;;;;4885434;29;20133;-82
2022/05/18 00:36:36;;;;;;;11.82;6.93;;;15.80;99.90;;;;;;4912246;29;20059;-83
2022/05/18 00:39:02;;;;;;;10.80;7.03;;;15.70;99.90;;;;;;4904413;29;20035;-82
2022/05/18 00:41:28;;;;;;;9.40;6.68;;;15.70;99.90;;;;;;4900192;29;20383;-83
2022/05/18 00:43:54;;;;;;;8.95;7.15;;;15.60;99.90;;;;;;4900438;29;20086;-82
2022/05/18 00:46:21;;;;;;;7.88;6.63;;;15.60;99.90;;;;;;4887217;29;20044;-83
2022/05/18 00:48:48;;;;;;;7.72;6.65;;;15.60;99.90;;;;;;4883567;29;20127;-83
2022/05/18 00:51:26;;;;;;;9.30;7.47;;;15.50;99.90;;;;;;4932537;28;20043;-83
2022/05/18 00:54:18;;;;;;;10.75;6.65;;;15.50;99.90;;;;;;4901691;29;20047;-82
2022/05/18 00:56:50;;;;;;;10.40;7.35;;;15.40;99.90;;;;;;4918898;29;20170;-83
2022/05/18 00:59:24;;;;;;;8.35;6.47;;;15.50;99.90;;;;;;4885905;29;22073;-82
2022/05/18 01:01:51;;;;;;;8.60;6.30;;;15.40;99.90;;;;;;4902345;29;20115;-82
2022/05/18 01:04:17;;;;;;;10.38;7.47;;;15.40;99.90;;;;;;4904608;29;20039;-82
2022/05/18 01:06:51;;;;;;;9.88;6.93;;;15.40;99.90;;;;;;4907076;29;20031;-82
2022/05/18 01:09:34;;;;;;;9.18;7.15;;;15.30;99.90;;;;;;4901639;29;20219;-83
2022/05/18 01:11:59;;;;;;;7.65;6.28;;;15.30;99.90;;;;;;4905322;29;20098;-82
2022/05/18 01:14:29;;;;;;;11.27;7.38;;;15.30;99.90;;;;;;4904436;29;20040;-82
2022/05/18 01:16:55;;;;;;;10.35;6.78;;;15.20;99.90;;;;;;4902176;29;20876;-82
2022/05/18 01:19:46;;;;;;;10.70;7.40;;;15.20;99.90;;;;;;4903140;29;20039;-83
2022/05/18 01:22:30;;;;;;;8.27;6.35;;;15.10;99.90;;;;;;4917324;29;20508;-83
2022/05/18 01:25:08;;;;;;;11.13;6.85;;;15.20;99.90;;;;;;4887475;29;21793;-82
2022/05/18 01:27:35;;;;;;;8.20;6.40;;;15.10;99.90;;;;;;4908760;29;20067;-82
2022/05/18 01:30:02;;;;;;;8.75;6.30;;;15.10;99.90;;;;;;4905293;29;20263;-82
2022/05/18 01:32:46;;;;;;;9.23;6.40;;;15.00;99.90;;;;;;4887314;29;20057;-82
2022/05/18 01:35:14;;;;;;;10.00;7.10;;;15.10;99.90;;;;;;4907626;29;20075;-82
2022/05/18 01:37:40;;;;;;;10.82;6.80;;;15.10;99.90;;;;;;4903472;29;20065;-82
2022/05/18 01:40:23;;;;;;;8.40;7.10;;;15.00;99.90;;;;;;4902214;29;20047;-82
2022/05/18 01:43:21;;;;;;;8.30;6.57;;;14.90;99.90;;;;;;4918922;29;20048;-82
2022/05/18 01:45:56;;;;;;;9.73;6.55;;;14.90;99.90;;;;;;4887805;29;20048;-82
2022/05/18 01:48:34;;;;;;;9.48;6.25;;;14.90;99.90;;;;;;4932623;28;20127;-82
2022/05/18 01:51:02;;;;;;;10.02;6.60;;;14.90;99.90;;;;;;4902977;29;20908;-82
2022/05/18 01:53:35;;;;;;;10.65;6.45;;;14.90;99.90;;;;;;4920539;29;20047;-82
2022/05/18 01:56:01;;;;;;;9.15;6.72;;;14.90;99.90;;;;;;4922818;29;20122;-83
2022/05/18 01:58:27;;;;;;;12.00;6.88;;;14.90;99.90;;;;;;4903567;29;20035;-82
2022/05/18 02:00:53;;;;;;;8.07;6.38;;;14.90;99.90;;;;;;4904882;29;20464;-82
2022/05/18 02:03:21;;;;;;;10.68;6.97;;;14.80;99.90;;;;;;4904886;29;20113;-82
2022/05/18 02:05:47;;;;;;;8.88;6.97;;;14.80;99.90;;;;;;4927214;29;20031;-82
2022/05/18 02:08:15;;;;;;;9.52;6.90;;;14.90;99.90;;;;;;4907946;29;20036;-82
2022/05/18 02:10:42;;;;;;;8.10;6.40;;;14.80;99.90;;;;;;4903399;29;20148;-83
2022/05/18 02:13:08;;;;;;;10.65;7.05;;;14.80;99.90;;;;;;4887967;29;20047;-82
2022/05/18 02:15:34;;;;;;;9.15;6.53;;;14.80;99.90;;;;;;4903262;29;20052;-82
2022/05/18 02:18:06;;;;;;;9.43;6.50;;;14.80;99.90;;;;;;4902465;29;20464;-81
2022/05/18 02:20:31;;;;;;;10.80;7.05;;;14.70;99.90;;;;;;4887712;29;20469;-82
2022/05/18 02:22:57;;;;;;;9.48;6.35;;;14.70;99.90;;;;;;4902967;29;20028;-82
2022/05/18 02:25:23;;;;;;;9.43;6.70;;;14.70;99.90;;;;;;4903073;29;20062;-82
2022/05/18 02:27:50;;;;;;;9.52;6.80;;;14.70;99.90;;;;;;4902004;29;20421;-82
2022/05/18 02:30:16;;;;;;;8.95;6.43;;;14.60;99.90;;;;;;4887412;29;20059;-82
2022/05/18 02:32:42;;;;;;;10.77;7.30;;;14.60;99.90;;;;;;4900296;29;20051;-82
2022/05/18 02:35:08;;;;;;;13.00;7.15;;;14.60;99.90;;;;;;4902698;29;20039;-82
2022/05/18 02:37:35;;;;;;;10.18;7.05;;;14.60;99.90;;;;;;4903041;29;20044;-83
2022/05/18 02:40:01;;;;;;;9.80;7.22;;;14.60;99.90;;;;;;4919737;29;20106;-82
2022/05/18 02:42:27;;;;;;;9.85;6.88;;;14.70;99.90;;;;;;4885893;29;20124;-82
2022/05/18 02:44:52;;;;;;;12.07;7.18;;;14.70;99.90;;;;;;4902732;29;20257;-82
2022/05/18 02:47:20;;;;;;;10.68;6.97;;;14.70;99.90;;;;;;4900520;29;20067;-83
2022/05/18 02:49:46;;;;;;;10.32;6.72;;;14.80;99.90;;;;;;4906519;29;20056;-82
2022/05/18 02:52:12;;;;;;;13.20;6.75;;;14.70;99.90;;;;;;4903823;29;20078;-82
2022/05/18 02:57:22;;;;;;;11.00;6.80;;;14.70;99.90;;;;;;4903016;29;20054;-82
2022/05/18 02:59:49;;;;;;;11.98;7.40;;;14.70;99.90;;;;;;4902875;29;20036;-82
2022/05/18 03:02:15;;;;;;;8.57;6.78;;;14.70;99.90;;;;;;4900873;29;20198;-82
2022/05/18 03:04:41;;;;;;;13.27;7.00;;;14.70;99.90;;;;;;4902920;29;20117;-82
2022/05/18 03:07:06;;;;;;;11.00;7.10;;;14.70;99.90;;;;;;4887902;29;20407;-82
2022/05/18 03:09:32;;;;;;;10.32;7.20;;;14.70;99.90;;;;;;4888071;29;20131;-83
2022/05/18 03:11:58;;;;;;;10.80;7.22;;;14.70;99.90;;;;;;4903058;29;20111;-83
2022/05/18 03:14:24;;;;;;;11.02;8.15;;;14.70;99.90;;;;;;4901813;29;20063;-82
2022/05/18 03:16:51;;;;;;;9.85;7.68;;;14.70;99.90;;;;;;4884559;29;20103;-82
2022/05/18 03:19:17;;;;;;;12.93;7.47;;;14.60;99.90;;;;;;4902891;29;20047;-82
2022/05/18 03:24:27;;;;;;;8.93;7.28;;;14.50;99.90;;;;;;4917561;29;20043;-83
2022/05/18 03:26:53;;;;;;;10.50;7.65;;;14.50;99.90;;;;;;4883883;29;20454;-82
2022/05/18 03:29:19;;;;;;;11.77;7.75;;;14.50;99.90;;;;;;4903111;29;20048;-82
2022/05/18 03:31:47;;;;;;;11.18;7.10;;;14.60;99.90;;;;;;4886545;29;20059;-82
2022/05/18 03:34:13;;;;;;;12.40;7.55;;;14.60;99.90;;;;;;4886012;29;20040;-82
2022/05/18 03:36:39;;;;;;;10.00;7.47;;;14.50;99.90;;;;;;4901660;29;20048;-82
2022/05/18 03:39:06;;;;;;;10.18;7.35;;;14.50;99.90;;;;;;4903235;29;20047;-82
2022/05/18 03:41:35;;;;;;;9.23;7.60;;;14.50;99.90;;;;;;4901558;29;20039;-82
2022/05/18 03:44:05;;;;;;;11.45;7.68;;;14.50;99.90;;;;;;4921860;29;20987;-82
2022/05/18 03:46:31;;;;;;;13.43;8.60;;;14.40;99.90;;;;;;4900887;29;20065;-82
2022/05/18 03:48:58;;;;;;;11.23;7.00;;;14.40;99.90;;;;;;4886100;29;20095;-82
2022/05/18 03:51:25;;;;;;;9.50;7.43;;;14.40;99.90;;;;;;4885244;29;20055;-82
2022/05/18 03:53:51;;;;;;;11.73;7.70;;;14.40;99.90;;;;;;4900799;29;20044;-82
2022/05/18 03:56:16;;;;;;;10.00;7.95;;;14.50;99.90;;;;;;4886498;29;20046;-82
2022/05/18 03:58:45;;;;;;;11.30;7.50;;;14.40;99.90;;;;;;4916611;29;20047;-83
2022/05/18 04:01:12;;;;;;;12.45;7.43;;;14.40;99.90;;;;;;4886432;29;20363;-83
2022/05/18 04:03:41;;;;;;;10.98;8.10;;;14.50;99.90;;;;;;4917883;29;20036;-82
2022/05/18 04:06:07;;;;;;;9.90;7.85;;;14.50;99.90;;;;;;4884441;29;20167;-82
2022/05/18 04:08:33;;;;;;;13.25;8.13;;;14.50;99.90;;;;;;4904722;29;20446;-82
2022/05/18 04:10:58;;;;;;;9.75;8.02;;;14.50;99.90;;;;;;4900017;29;20237;-83
2022/05/18 04:13:25;;;;;;;12.45;8.20;;;14.50;99.90;;;;;;4919931;29;20047;-83
2022/05/18 04:15:52;;;;;;;13.07;7.63;;;14.50;99.90;;;;;;4900156;29;20429;-82
2022/05/18 04:18:18;;;;;;;10.70;7.90;;;14.60;99.90;;;;;;4883342;29;20044;-82
2022/05/18 04:20:47;;;;;;;11.25;7.75;;;14.60;99.90;;;;;;4883665;29;20594;-83
2022/05/18 04:23:13;;;;;;;8.32;7.47;;;14.70;99.90;;;;;;4902092;29;20377;-82
2022/05/18 04:25:41;;;;;;;13.88;8.48;;;14.70;99.90;;;;;;4898214;29;20047;-82
2022/05/18 04:28:07;;;;;;;11.52;8.18;;;14.70;99.90;;;;;;4900301;29;20094;-82
2022/05/18 04:30:34;;;;;;;9.73;8.40;;;14.90;99.90;;;;;;4901140;29;20413;-83
2022/05/18 04:33:01;;;;;;;8.82;7.78;;;14.90;99.90;;;;;;4899055;29;20048;-82
2022/05/18 04:35:28;;;;;;;10.38;7.85;;;15.00;99.90;;;;;;4901683;29;20089;-82
2022/05/18 04:37:55;;;;;;;10.10;8.13;;;15.00;99.90;;;;;;4899946;29;20044;-82
2022/05/18 04:40:21;;;;;;;11.93;8.30;;;15.10;99.90;;;;;;4900855;29;20043;-82
2022/05/18 04:42:48;;;;;;;12.55;8.45;;;15.20;99.90;;;;;;4882925;29;20441;-82
2022/05/18 04:45:17;;;;;;;10.38;8.18;;;15.30;99.90;;;;;;4904202;29;20127;-82
2022/05/18 04:47:42;;;;;;;10.95;7.95;;;15.40;99.90;;;;;;4905714;29;20401;-82
2022/05/18 04:50:09;;;;;;;10.93;8.25;;;15.50;99.90;;;;;;4886436;29;20050;-82
2022/05/18 04:52:35;;;;;;;12.65;8.43;;;15.60;99.90;;;;;;4881887;29;20494;-82
2022/05/18 04:55:01;;;;;;;11.52;8.75;;;15.70;99.90;;;;;;4899164;29;20051;-82
2022/05/18 04:57:27;;;;;;;9.68;7.78;;;15.80;99.90;;;;;;4882975;29;20047;-83
2022/05/18 04:59:52;;;;;;;9.85;8.65;;;16.00;99.90;;;;;;4899696;29;20038;-82
2022/05/18 05:02:19;;;;;;;10.27;8.20;;;16.10;99.90;;;;;;4899680;29;20119;-82
2022/05/18 05:04:48;;;;;;;10.40;8.40;;;16.20;99.90;;;;;;4901419;29;20585;-82
2022/05/18 05:07:14;;;;;;;11.75;8.05;;;16.40;99.90;;;;;;4906032;29;20032;-83
2022/05/18 05:09:39;;;;;;;11.60;8.45;;;16.40;99.90;;;;;;4933960;28;20035;-83
2022/05/18 05:12:07;;;;;;;10.80;8.25;;;16.40;99.90;;;;;;4886081;29;20123;-82
2022/05/18 05:14:37;;;;;;;10.27;8.18;;;16.60;99.90;;;;;;4902687;29;20071;-82
2022/05/18 05:17:03;;;;;;;9.85;8.23;;;16.80;99.90;;;;;;4899931;29;20039;-83
2022/05/18 05:19:29;;;;;;;11.38;7.88;;;16.80;99.90;;;;;;4902300;29;20388;-83
2022/05/18 05:21:55;;;;;;;12.60;8.68;;;16.80;99.90;;;;;;4902536;29;20047;-82
2022/05/18 05:24:20;;;;;;;10.43;8.65;;;17.00;99.90;;;;;;4885044;29;20035;-83
2022/05/18 05:26:46;;;;;;;11.55;8.73;;;17.00;99.90;;;;;;4906735;29;20035;-82
2022/05/18 05:29:12;;;;;;;11.70;8.70;;;17.10;99.90;;;;;;4886437;29;20055;-82
2022/05/18 05:31:39;;;;;;;11.48;8.50;;;17.20;99.90;;;;;;4886902;29;20548;-82
2022/05/18 05:34:05;;;;;;;12.38;7.97;;;17.40;99.90;;;;;;4903564;29;20043;-82
2022/05/18 05:36:31;;;;;;;10.25;8.38;;;17.40;99.90;;;;;;4887955;29;20046;-82
2022/05/18 05:38:57;;;;;;;10.13;8.63;;;17.50;99.90;;;;;;4900344;29;20355;-82
2022/05/18 05:41:24;;;;;;;10.77;9.10;;;17.50;99.90;;;;;;4913593;29;20039;-82
2022/05/18 05:43:50;;;;;;;9.88;8.55;;;17.60;99.90;;;;;;4904339;29;20043;-82
2022/05/18 05:46:17;;;;;;;11.13;9.13;;;17.60;99.90;;;;;;4901710;29;20058;-82
2022/05/18 05:48:45;;;;;;;12.23;9.02;;;17.70;99.90;;;;;;4902803;29;20062;-82
2022/05/18 05:51:13;;;;;;;12.23;9.50;;;17.80;99.90;;;;;;4891762;29;20126;-83
2022/05/18 05:53:46;;;;;;;11.48;9.13;;;17.90;99.90;;;;;;4896233;29;20501;-82
2022/05/18 05:56:15;;;;;;;12.57;9.25;;;18.00;99.90;;;;;;4893104;29;20031;-82
2022/05/18 05:58:43;;;;;;;11.18;9.20;;;18.00;99.90;;;;;;4921931;29;20079;-82
2022/05/18 06:01:11;;;;;;;10.90;8.45;;;18.10;99.90;;;;;;4905446;29;20083;-82
2022/05/18 06:03:38;;;;;;;12.35;9.30;;;18.30;88.80;;;;;;4905654;29;20106;-82
2022/05/18 06:06:04;;;;;;;11.55;8.80;;;18.30;88.90;;;;;;4906787;29;20362;-82
2022/05/18 06:08:31;;;;;;;10.23;8.90;;;18.40;84.00;;;;;;4892924;29;20139;-83
2022/05/18 06:10:58;;;;;;;14.55;9.70;;;18.50;80.90;;;;;;4907029;29;20197;-82
2022/05/18 06:13:25;;;;;;;13.95;9.57;;;18.50;53.40;;;;;;4907364;29;20075;-83
2022/05/18 06:15:51;;;;;;;12.32;9.70;;;18.60;54.40;;;;;;4908019;29;20310;-82
2022/05/18 06:18:16;;;;;;;13.15;9.00;;;18.60;53.50;;;;;;4890000;29;20758;-82
2022/05/18 06:20:44;;;;;;;13.45;9.95;;;18.70;58.20;;;;;;4893795;29;20442;-83
2022/05/18 06:23:10;;;;;;;10.70;9.48;;;18.70;76.70;;;;;;4907547;29;20640;-83
2022/05/18 06:25:37;;;;;;;14.98;9.25;;;18.80;53.80;;;;;;4906613;29;20050;-83
2022/05/18 06:28:07;;;;;;;11.30;9.43;;;18.80;59.40;;;;;;4903475;29;20071;-82
2022/05/18 06:30:34;;;;;;;12.18;9.07;;;19.00;16.40;;;;;;4885602;29;20048;-82
2022/05/18 06:33:02;;;;;;;15.05;9.85;;;19.00;24.80;;;;;;4908105;29;20135;-82
2022/05/18 06:35:28;;;;;;;11.43;9.07;;;19.00;25.60;;;;;;4890173;29;20350;-82
2022/05/18 06:37:53;;;;;;;11.80;9.23;;;19.10;14.00;;;;;;4905302;29;20047;-82
2022/05/18 06:40:19;;;;;;;14.15;9.07;;;19.30;15.10;;;;;;4888453;29;20115;-82
2022/05/18 06:42:45;;;;;;;11.35;9.57;;;19.40;10.90;;;;;;4907646;29;20187;-82
2022/05/18 06:45:14;;;;;;;10.63;9.15;;;19.40;1.60;;;;;;4906421;29;20465;-82
2022/05/18 06:47:40;;;;;;;12.63;9.77;;;19.50;1.00;;;;;;4889409;29;20123;-83
2022/05/18 06:50:08;;;;;;;13.07;9.55;;;19.70;1.00;;;;;;4907628;29;20497;-83
2022/05/18 06:52:34;;;;;;;10.95;9.50;;;19.70;1.00;;;;;;4905003;29;20086;-82
2022/05/18 06:55:00;;;;;;;15.48;10.00;;;19.90;1.00;;;;;;4904185;29;20074;-82
2022/05/18 06:57:26;;;;;;;11.90;10.25;;;20.00;1.00;;;;;;4905291;29;20101;-82
2022/05/18 06:59:52;;;;;;;12.40;9.50;;;20.10;1.00;;;;;;4906359;29;20047;-83
2022/05/18 07:02:18;;;;;;;14.35;10.02;;;20.20;1.00;;;;;;4891262;29;20118;-82
2022/05/18 07:04:43;;;;;;;12.50;9.48;;;20.50;1.00;;;;;;4889687;29;20032;-82
2022/05/18 07:07:12;;;;;;;13.05;9.18;;;20.40;1.00;;;;;;4899106;29;20039;-82
2022/05/18 07:09:38;;;;;;;12.68;9.23;;;20.60;1.00;;;;;;4907248;29;20142;-82
2022/05/18 07:12:04;;;;;;;11.85;8.90;;;20.70;1.00;;;;;;4903862;29;20302;-82
2022/05/18 07:14:32;;;;;;;14.80;9.60;;;20.90;1.00;;;;;;4903728;29;20688;-82
2022/05/18 07:16:58;;;;;;;14.93;8.80;;;20.90;1.00;;;;;;4911005;29;20035;-83
2022/05/18 07:19:25;;;;;;;12.85;9.02;;;21.10;99.90;;;;;;4886622;29;20047;-82
2022/05/18 07:21:51;;;;;;;9.43;8.27;;;21.30;99.90;;;;;;4887399;29;20106;-82
2022/05/18 07:24:17;;;;;;;10.90;7.90;;;21.40;99.90;;;;;;4903729;29;20035;-83
2022/05/18 07:26:44;;;;;;;10.93;8.20;;;21.50;99.90;;;;;;4903826;29;20158;-83
2022/05/18 07:29:28;;;;;;;11.45;7.72;;;21.60;99.90;;;;;;5074098;27;20467;-83
2022/05/18 07:32:09;;;;;;;13.80;8.10;;;21.70;99.90;;;;;;5084118;28;20125;-83
2022/05/18 07:34:36;;;;;;;10.30;7.40;;;21.80;99.90;;;;;;5070824;28;20028;-83
2022/05/18 07:37:02;;;;;;;10.73;7.60;;;22.10;99.90;;;;;;5040259;28;20069;-84
2022/05/18 07:39:28;;;;;;;9.63;7.03;;;22.10;99.90;;;;;;5060198;28;20036;-83
2022/05/18 07:41:55;;;;;;;9.95;6.82;;;22.10;99.90;;;;;;5057494;28;20129;-83
2022/05/18 07:44:21;;;;;;;10.27;7.15;;;22.10;99.90;;;;;;5042567;28;20124;-83
2022/05/18 07:46:47;;;;;;;9.13;6.65;;;22.30;99.90;;;;;;5041816;28;20597;-83
2022/05/18 07:49:13;;;;;;;10.90;7.25;;;22.30;99.90;;;;;;5059089;28;20124;-83
2022/05/18 07:51:39;;;;;;;11.27;6.88;;;22.40;99.90;;;;;;5046252;28;20135;-83
2022/05/18 07:54:08;;;;;;;8.82;7.15;;;22.50;99.90;;;;;;5041738;28;20037;-83
2022/05/18 07:56:36;;;;;;;11.20;7.22;;;22.50;99.90;;;;;;5041381;28;20037;-83
2022/05/18 07:59:04;;;;;;;10.93;7.20;;;22.50;99.90;;;;;;5040739;28;20049;-83
2022/05/18 08:01:30;;;;;;;9.10;5.85;;;22.80;99.90;;;;;;5062048;28;20492;-83
2022/05/18 08:03:56;;;;;;;11.40;7.13;;;22.90;99.90;;;;;;5067045;28;20106;-83
2022/05/18 08:06:21;;;;;;;7.70;6.05;;;23.00;99.90;;;;;;5068455;28;20514;-83
2022/05/18 08:08:47;;;;;;;9.40;6.32;;;23.10;99.90;;;;;;5066151;28;20051;-83
2022/05/18 08:16:42;;;;;;;9.43;7.07;;;23.60;99.90;;;;;;5083565;28;20041;-83
2022/05/18 08:19:12;;;;;;;10.10;6.28;;;23.70;99.90;;;;;;5040395;28;20143;-83
2022/05/18 08:21:38;;;;;;;9.90;5.80;;;23.80;99.90;;;;;;5042283;28;20041;-83
2022/05/18 08:24:06;;;;;;;9.32;6.25;;;23.80;99.90;;;;;;5072606;28;20041;-83
2022/05/18 08:26:32;;;;;;;19.70;5.80;;;24.00;99.90;;;;;;5046116;28;20122;-83
2022/05/18 08:28:58;;;;;;;8.15;5.63;;;24.20;99.90;;;;;;5041311;28;20041;-82
2022/05/18 08:31:24;;;;;;;9.38;5.30;;;24.20;99.90;;;;;;5059843;28;20132;-83
2022/05/18 08:33:52;;;;;;;9.80;5.97;;;24.20;99.90;;;;;;5062029;28;20396;-83
2022/05/18 08:36:20;;;;;;;8.88;5.47;;;24.20;99.90;;;;;;5074473;28;20098;-83
2022/05/18 08:38:46;;;;;;;8.60;5.40;;;24.20;99.90;;;;;;5043559;28;20051;-83
2022/05/18 08:41:13;;;;;;;7.57;5.75;;;24.20;99.90;;;;;;5027705;28;20044;-83
2022/05/18 08:43:53;;;;;;;9.45;6.00;;;24.30;99.90;;;;;;5044649;28;20044;-83
2022/05/18 08:46:33;;;;;;;9.80;6.43;;;24.40;99.90;;;;;;5070160;28;20391;-83
2022/05/18 08:49:39;;;;;;;9.13;6.13;;;24.50;99.90;;;;;;5072235;28;20485;-83
2022/05/18 08:52:42;;;;;;;10.10;6.15;;;24.50;99.90;;;;;;5040915;28;20173;-83
2022/05/18 08:55:29;;;;;;;9.07;5.40;;;24.80;99.90;;;;;;5027705;28;20037;-83
2022/05/18 08:57:58;;;;;;;7.65;4.85;;;25.00;99.90;;;;;;5044504;28;20123;-85
2022/05/18 09:00:45;;;;;;;6.25;4.00;;;25.20;99.90;;;;;;5032232;28;20488;-83
2022/05/18 09:03:21;;;;;;;6.88;4.03;;;25.00;99.90;;;;;;5044560;28;20232;-83
2022/05/18 09:06:09;;;;;;;7.40;4.30;;;25.20;99.90;;;;;;5027131;28;20053;-83
2022/05/18 09:08:43;;;;;;;8.82;4.32;;;25.30;99.90;;;;;;5045429;28;20041;-83
2022/05/18 09:11:21;;;;;;;8.27;4.30;;;25.30;99.90;;;;;;5030352;28;20040;-83
2022/05/18 09:13:47;;;;;;;10.50;4.68;;;25.40;99.90;;;;;;5053320;28;20025;-83
2022/05/18 09:16:24;;;;;;;8.30;4.40;;;25.50;99.90;;;;;;5028944;28;20352;-83
2022/05/18 09:18:56;;;;;;;7.68;4.70;;;25.80;99.90;;;;;;5049768;28;20472;-83
2022/05/18 09:21:51;;;;;;;8.55;4.43;;;25.70;99.90;;;;;;5022573;28;20037;-83
2022/05/18 09:24:55;;;;;;;6.15;4.47;;;25.90;99.90;;;;;;5038109;28;20412;-83
2022/05/18 09:27:33;;;;;;;10.57;4.78;;;26.10;99.90;;;;;;5023567;28;20061;-83
2022/05/18 09:30:06;;;;;;;7.28;4.68;;;26.10;99.90;;;;;;5026775;28;20091;-83
2022/05/18 09:32:59;;;;;;;7.90;5.38;;;26.10;99.90;;;;;;5070501;28;20256;-83
2022/05/18 09:35:45;;;;;;;8.70;5.10;;;26.10;99.90;;;;;;5039885;28;20037;-83
2022/05/18 09:38:39;;;;;;;6.55;4.13;;;26.30;99.90;;;;;;5025021;28;20037;-83
2022/05/18 09:41:10;;;;;;;5.25;4.10;;;26.60;99.90;;;;;;5041285;28;20245;-83
2022/05/18 09:43:58;;;;;;;8.13;4.35;;;26.80;99.90;;;;;;5041340;28;20579;-83
2022/05/18 09:46:27;;;;;;;8.35;5.13;;;26.90;99.90;;;;;;5027347;28;20036;-82
2022/05/18 09:49:08;;;;;;;7.15;4.68;;;26.80;99.90;;;;;;5041383;28;20042;-83
2022/05/18 09:51:35;;;;;;;5.50;4.45;;;26.90;99.90;;;;;;5039029;28;20306;-82
2022/05/18 09:54:00;;;;;;;5.40;3.83;;;26.90;99.90;;;;;;5030881;28;20040;-83
2022/05/18 09:56:42;;;;;;;7.45;4.15;;;27.20;99.90;;;;;;5066347;28;20451;-83
2022/05/18 09:59:14;;;;;;;7.93;4.07;;;27.40;99.90;;;;;;5043212;28;20052;-82
2022/05/18 10:07:28;;;;;;;9.32;5.15;;;27.20;99.90;;;;;;5041145;28;20040;-83
2022/05/18 10:10:02;;;;;;;9.27;5.05;;;27.00;99.90;;;;;;5058940;28;20470;-84
2022/05/18 10:12:48;;;;;;;8.48;5.30;;;27.30;99.90;;;;;;5026220;28;20259;-83
2022/05/18 10:15:27;;;;;;;9.18;4.93;;;27.30;99.90;;;;;;5050292;28;20123;-83
2022/05/18 10:17:57;;;;;;;6.88;5.60;;;27.40;99.90;;;;;;5039332;28;20447;-84
2022/05/18 10:20:32;;;;;;;10.25;5.63;;;27.60;99.90;;;;;;5036109;28;20113;-84
2022/05/18 10:23:00;;;;;;;8.88;4.90;;;27.50;99.90;;;;;;5039473;28;20029;-83
2022/05/18 10:25:52;;;;;;;7.80;5.75;;;27.70;99.90;;;;;;5038943;28;20040;-84
2022/05/18 10:28:23;;;;;;;8.95;5.40;;;27.90;99.90;;;;;;5050107;28;20049;-83
2022/05/18 10:30:58;;;;;;;8.02;5.53;;;28.10;99.90;;;;;;5025967;28;20392;-83
2022/05/18 10:33:32;;;;;;;8.50;7.05;;;28.10;99.90;;;;;;5024268;28;20122;-83
2022/05/18 10:36:11;;;;;;;7.53;5.85;;;28.10;99.90;;;;;;5054939;28;20074;-84
2022/05/18 10:38:48;;;;;;;8.57;5.82;;;27.90;99.90;;;;;;5022056;28;20067;-83
2022/05/18 10:41:17;;;;;;;7.93;5.28;;;28.00;99.90;;;;;;5027722;28;20112;-84
2022/05/18 10:43:59;;;;;;;8.07;5.18;;;27.90;99.90;;;;;;5042832;28;20105;-84
2022/05/18 10:46:43;;;;;;;13.20;6.55;;;28.00;99.90;;;;;;5072480;28;20045;-83
2022/05/18 10:49:19;;;;;;;10.95;6.45;;;28.10;99.90;;;;;;5042778;28;20044;-84
2022/05/18 10:51:45;;;;;;;9.27;6.40;;;28.10;99.90;;;;;;5047302;28;20128;-83
2022/05/18 10:54:27;;;;;;;8.35;7.00;;;28.10;99.90;;;;;;5027940;28;20033;-83
2022/05/18 10:57:15;;;;;;;10.23;8.35;;;28.20;99.90;;;;;;5043378;28;20044;-84
2022/05/18 11:00:05;;;;;;;10.57;8.13;;;27.80;99.90;;;;;;5067696;28;20067;-84
2022/05/18 11:02:43;;;;;;;10.13;8.80;;;27.70;99.90;;;;;;5055971;28;20036;-83
2022/05/18 11:05:19;;;;;;;12.13;9.73;;;27.90;99.90;;;;;;5015826;28;20040;-84
2022/05/18 11:07:45;;;;;;;14.65;9.27;;;27.90;99.90;;;;;;5046636;28;20087;-84
2022/05/18 11:10:12;;;;;;;12.98;9.35;;;28.20;99.90;;;;;;5037150;28;20068;-83
2022/05/18 11:13:03;;;;;;;14.30;8.00;;;28.30;99.90;;;;;;5022654;28;20033;-83
2022/05/18 11:15:50;;;;;;;12.05;9.50;;;28.60;99.90;;;;;;5048403;28;20471;-84
2022/05/18 11:18:33;;;;;;;12.00;9.98;;;28.20;99.90;;;;;;5025676;28;20040;-84
2022/05/18 11:21:21;;;;;;;12.00;9.05;;;28.30;99.90;;;;;;5038061;28;20060;-85
2022/05/18 11:24:08;;;;;;;11.38;9.80;;;28.70;99.90;;;;;;5017924;28;20493;-84
2022/05/18 11:26:46;;;;;;;13.75;9.82;;;28.50;99.90;;;;;;5019385;28;20044;-84
2022/05/18 11:29:44;;;;;;;13.48;9.02;;;28.50;99.90;;;;;;5022074;28;20638;-84
2022/05/18 11:32:20;;;;;;;12.38;8.88;;;28.90;99.90;;;;;;5047201;28;20042;-84
2022/05/18 11:34:53;;;;;;;12.38;8.00;;;29.00;99.90;;;;;;5023920;28;20092;-84
2022/05/18 11:38:04;;;;;;;13.05;9.38;;;29.60;99.90;;;;;;5018456;28;20040;-83
2022/05/18 11:41:08;;;;;;;12.88;10.15;;;29.10;99.90;;;;;;5025165;28;20047;-83
2022/05/18 11:44:06;;;;;;;13.73;9.15;;;28.70;99.90;;;;;;4972020;28;20156;-84
2022/05/18 11:47:20;;;;;;;11.38;8.20;;;29.10;99.90;;;;;;5034307;28;20044;-84
2022/05/18 11:50:10;;;;;;;12.70;8.65;;;28.80;99.90;;;;;;5021832;28;20341;-84
2022/05/18 11:52:46;;;;;;;11.18;8.70;;;29.00;99.90;;;;;;5019401;28;20039;-84
2022/05/18 11:55:33;;;;;;;10.68;8.43;;;29.40;99.90;;;;;;5035016;28;20111;-84
2022/05/18 11:58:07;;;;;;;13.43;9.10;;;28.90;99.90;;;;;;5023272;28;20030;-84
2022/05/18 12:00:56;;;;;;;11.77;8.88;;;29.20;99.90;;;;;;5047230;28;20037;-83
2022/05/18 12:03:55;;;;;;;10.48;8.30;;;29.40;99.90;;;;;;5021372;28;20080;-84
2022/05/18 12:06:26;;;;;;;9.55;7.50;;;28.90;99.90;;;;;;5039823;28;20044;-84
2022/05/18 12:09:19;;;;;;;9.57;7.82;;;28.50;99.90;;;;;;5050603;28;20037;-84
2022/05/18 12:12:09;;;;;;;13.30;6.88;;;28.30;99.90;;;;;;5022997;28;20126;-84
2022/05/18 12:14:52;;;;;;;9.23;6.35;;;28.20;99.90;;;;;;5044216;28;20262;-84
2022/05/18 12:17:28;;;;;;;8.75;6.38;;;28.00;99.90;;;;;;5039846;28;20799;-84
2022/05/18 12:20:12;;;;;;;12.10;5.80;;;28.00;99.90;;;;;;5027806;28;20037;-84
2022/05/18 12:22:45;;;;;;;7.57;5.78;;;28.10;99.90;;;;;;5038502;28;20044;-84
2022/05/18 12:25:15;;;;;;;6.55;5.50;;;28.40;99.90;;;;;;5025325;28;20552;-84
2022/05/18 12:27:44;;;;;;;8.48;5.97;;;28.50;99.90;;;;;;5067993;28;20045;-84
2022/05/18 12:30:14;;;;;;;9.60;7.22;;;29.00;99.90;;;;;;5043488;28;20045;-84
2022/05/18 12:32:40;;;;;;;9.30;6.82;;;28.60;99.90;;;;;;5027766;28;20040;-84
2022/05/18 12:35:11;;;;;;;8.75;7.00;;;28.60;99.90;;;;;;5042766;28;20067;-83
2022/05/18 12:38:10;;;;;;;10.98;7.93;;;28.60;99.90;;;;;;5024629;28;20475;-84
2022/05/18 12:40:53;;;;;;;9.95;7.55;;;29.30;99.90;;;;;;5042474;28;20045;-85
2022/05/18 12:43:44;;;;;;;9.63;7.45;;;29.40;99.90;;;;;;5048059;28;20052;-84
2022/05/18 12:46:16;;;;;;;10.40;7.63;;;29.60;99.90;;;;;;5026903;28;20041;-85
2022/05/18 12:49:06;;;;;;;10.38;7.88;;;28.90;99.90;;;;;;5023399;28;20095;-84
2022/05/18 12:51:38;;;;;;;9.85;7.53;;;28.20;99.90;;;;;;5024920;28;20555;-84
2022/05/18 12:54:10;;;;;;;10.00;6.88;;;28.00;99.90;;;;;;5024599;28;20041;-84
2022/05/18 12:56:36;;;;;;;9.15;5.93;;;28.00;99.90;;;;;;5043846;28;20036;-84
2022/05/18 12:59:24;;;;;;;9.73;5.20;;;27.40;99.90;;;;;;5048600;28;20044;-84
2022/05/18 13:02:03;;;;;;;6.70;4.65;;;27.60;99.90;;;;;;5023564;28;20401;-84
2022/05/18 13:04:41;;;;;;;8.77;4.53;;;27.80;99.90;;;;;;5039027;28;20271;-84
2022/05/18 13:07:29;;;;;;;9.40;5.03;;;28.40;99.90;;;;;;5045458;28;20095;-83
2022/05/18 13:10:10;;;;;;;7.95;5.63;;;28.60;99.90;;;;;;5067289;28;20044;-84
2022/05/18 13:12:40;;;;;;;9.50;6.60;;;28.90;99.90;;;;;;5037003;28;20037;-84
2022/05/18 13:15:20;;;;;;;9.60;6.50;;;28.90;99.90;;;;;;5018313;28;20046;-84
2022/05/18 13:17:52;;;;;;;9.63;6.75;;;29.30;99.90;;;;;;5044446;28;20352;-84
2022/05/18 13:20:30;;;;;;;11.20;8.10;;;28.90;99.90;;;;;;5044655;28;20037;-84
2022/05/18 13:23:04;;;;;;;10.50;8.52;;;27.90;99.90;;;;;;5044452;28;20037;-84